createdAt,value
2023-05-11T00:00:14.863Z,993.00
2023-05-11T00:01:14.888Z,994.00
2023-05-11T00:02:14.995Z,991.00
2023-05-11T00:03:15.200Z,989.00
2023-05-11T00:04:15.051Z,989.00
2023-05-11T00:05:15.049Z,988.00
2023-05-11T00:06:15.113Z,988.00
2023-05-11T00:07:15.126Z,988.00
2023-05-11T00:08:16.998Z,987.00
2023-05-11T00:09:15.214Z,987.00
2023-05-11T00:10:15.327Z,985.00
2023-05-11T00:11:15.285Z,988.00
2023-05-11T00:12:15.327Z,989.00
2023-05-11T00:13:15.372Z,991.00
2023-05-11T00:14:15.413Z,988.00
2023-05-11T00:15:15.451Z,985.00
2023-05-11T00:16:15.522Z,985.00
2023-05-11T00:17:15.529Z,986.00
2023-05-11T00:18:15.587Z,986.00
2023-05-11T00:19:15.626Z,985.00
2023-05-11T00:20:15.724Z,986.00
2023-05-11T00:21:15.697Z,984.00
2023-05-11T00:22:15.764Z,985.00
2023-05-11T00:23:15.789Z,983.00
2023-05-11T00:24:15.845Z,981.00
2023-05-11T00:25:15.879Z,982.00
2023-05-11T00:26:15.915Z,978.00
2023-05-11T00:27:15.958Z,978.00
2023-05-11T00:28:15.999Z,980.00
2023-05-11T00:29:16.057Z,978.00
2023-05-11T00:30:16.225Z,979.00
2023-05-11T00:31:16.147Z,979.00
2023-05-11T00:32:16.174Z,978.00
2023-05-11T00:33:16.224Z,977.00
2023-05-11T00:34:16.262Z,972.00
2023-05-11T00:35:16.293Z,970.00
2023-05-11T00:36:16.361Z,968.00
2023-05-11T00:37:16.382Z,969.00
2023-05-11T00:38:16.430Z,969.00
2023-05-11T00:39:16.491Z,968.00
2023-05-11T00:40:16.716Z,970.00
2023-05-11T00:41:16.589Z,970.00
2023-05-11T00:42:16.594Z,969.00
2023-05-11T00:43:16.643Z,971.00
2023-05-11T00:44:16.678Z,970.00
2023-05-11T00:45:16.721Z,969.00
2023-05-11T00:46:16.798Z,969.00
2023-05-11T00:47:16.800Z,970.00
2023-05-11T00:48:16.842Z,969.00
2023-05-11T00:49:16.882Z,971.00
2023-05-11T00:50:17.272Z,971.00
2023-05-11T00:51:16.966Z,972.00
2023-05-11T00:52:17.005Z,974.00
2023-05-11T00:53:17.046Z,973.00
2023-05-11T00:54:17.090Z,972.00
2023-05-11T00:55:17.134Z,972.00
2023-05-11T00:56:17.189Z,971.00
2023-05-11T00:57:17.244Z,973.00
2023-05-11T00:58:17.278Z,973.00
2023-05-11T00:59:17.361Z,974.00
2023-05-11T01:00:17.556Z,971.00
2023-05-11T01:01:17.532Z,971.00
2023-05-11T01:02:17.537Z,969.00
2023-05-11T01:03:17.520Z,966.00
2023-05-11T01:04:17.540Z,966.00
2023-05-11T01:05:17.582Z,967.00
2023-05-11T01:06:17.629Z,970.00
2023-05-11T01:07:17.682Z,973.00
2023-05-11T01:08:17.737Z,972.00
2023-05-11T01:09:17.778Z,973.00
2023-05-11T01:10:17.974Z,977.00
2023-05-11T01:11:17.884Z,978.00
2023-05-11T01:12:17.932Z,978.00
2023-05-11T01:13:17.952Z,974.00
2023-05-11T01:14:18.001Z,971.00
2023-05-11T01:15:18.037Z,970.00
2023-05-11T01:16:18.133Z,969.00
2023-05-11T01:17:18.125Z,968.00
2023-05-11T01:18:18.254Z,965.00
2023-05-11T01:19:18.208Z,960.00
2023-05-11T01:20:18.404Z,961.00
2023-05-11T01:21:18.294Z,960.00
2023-05-11T01:22:18.329Z,957.00
2023-05-11T01:23:18.378Z,957.00
2023-05-11T01:24:18.430Z,958.00
2023-05-11T01:25:18.455Z,957.00
2023-05-11T01:26:18.506Z,959.00
2023-05-11T01:27:18.565Z,960.00
2023-05-11T01:28:18.608Z,959.00
2023-05-11T01:29:18.647Z,960.00
2023-05-11T01:30:18.903Z,964.00
2023-05-11T01:31:18.754Z,965.00
2023-05-11T01:32:18.798Z,964.00
2023-05-11T01:33:18.909Z,963.00
2023-05-11T01:34:18.893Z,960.00
2023-05-11T01:35:18.931Z,958.00
2023-05-11T01:36:18.974Z,955.00
2023-05-11T01:37:19.028Z,953.00
2023-05-11T01:38:19.129Z,955.00
2023-05-11T01:39:19.122Z,956.00
2023-05-11T01:40:19.344Z,961.00
2023-05-11T01:41:19.212Z,961.00
2023-05-11T01:42:19.245Z,961.00
2023-05-11T01:43:19.294Z,960.00
2023-05-11T01:44:19.341Z,961.00
2023-05-11T01:45:19.403Z,959.00
2023-05-11T01:46:19.522Z,955.00
2023-05-11T01:47:19.482Z,955.00
2023-05-11T01:48:19.542Z,957.00
2023-05-11T01:49:19.572Z,958.00
2023-05-11T01:50:19.932Z,956.00
2023-05-11T01:51:19.655Z,957.00
2023-05-11T01:52:19.709Z,956.00
2023-05-11T01:53:19.748Z,956.00
2023-05-11T01:54:19.804Z,952.00
2023-05-11T01:55:19.837Z,951.00
2023-05-11T01:56:19.894Z,949.00
2023-05-11T01:57:19.955Z,947.00
2023-05-11T01:58:20.007Z,946.00
2023-05-11T01:59:20.053Z,949.00
2023-05-11T02:00:20.256Z,951.00
2023-05-11T02:01:20.194Z,953.00
2023-05-11T02:02:20.226Z,954.00
2023-05-11T02:03:20.326Z,951.00
2023-05-11T02:04:20.292Z,948.00
2023-05-11T02:05:20.344Z,947.00
2023-05-11T02:06:20.390Z,948.00
2023-05-11T02:07:20.435Z,946.00
2023-05-11T02:08:20.488Z,944.00
2023-05-11T02:09:20.537Z,943.00
2023-05-11T02:10:20.747Z,944.00
2023-05-11T02:11:20.643Z,945.00
2023-05-11T02:12:20.681Z,941.00
2023-05-11T02:13:20.740Z,943.00
2023-05-11T02:14:20.783Z,943.00
2023-05-11T02:15:20.825Z,943.00
2023-05-11T02:16:20.919Z,941.00
2023-05-11T02:17:20.929Z,941.00
2023-05-11T02:18:21.030Z,941.00
2023-05-11T02:19:21.024Z,939.00
2023-05-11T02:20:21.199Z,940.00
2023-05-11T02:21:21.107Z,941.00
2023-05-11T02:22:21.149Z,939.00
2023-05-11T02:23:21.215Z,937.00
2023-05-11T02:24:21.256Z,936.00
2023-05-11T02:25:21.421Z,934.00
2023-05-11T02:26:21.354Z,934.00
2023-05-11T02:27:21.400Z,934.00
2023-05-11T02:28:21.455Z,933.00
2023-05-11T02:29:21.501Z,930.00
2023-05-11T02:30:21.555Z,929.00
2023-05-11T02:31:21.578Z,928.00
2023-05-11T02:32:21.632Z,928.00
2023-05-11T02:33:21.659Z,926.00
2023-05-11T02:34:21.713Z,926.00
2023-05-11T02:35:21.747Z,927.00
2023-05-11T02:36:21.791Z,928.00
2023-05-11T02:37:21.847Z,927.00
2023-05-11T02:38:21.883Z,929.00
2023-05-11T02:39:21.971Z,928.00
2023-05-11T02:40:21.969Z,927.00
2023-05-11T02:41:22.016Z,929.00
2023-05-11T02:42:22.082Z,931.00
2023-05-11T02:43:22.125Z,930.00
2023-05-11T02:44:22.171Z,931.00
2023-05-11T02:45:22.200Z,929.00
2023-05-11T02:46:22.278Z,927.00
2023-05-11T02:47:22.302Z,927.00
2023-05-11T02:48:22.343Z,928.00
2023-05-11T02:49:22.400Z,927.00
2023-05-11T02:50:22.444Z,928.00
2023-05-11T02:51:22.504Z,925.00
2023-05-11T02:52:22.544Z,927.00
2023-05-11T02:53:22.596Z,925.00
2023-05-11T02:54:22.672Z,923.00
2023-05-11T02:55:22.691Z,924.00
2023-05-11T02:56:22.719Z,920.00
2023-05-11T02:57:22.763Z,917.00
2023-05-11T02:58:22.843Z,917.00
2023-05-11T02:59:22.875Z,915.00
2023-05-11T03:00:23.135Z,913.00
2023-05-11T03:01:23.022Z,915.00
2023-05-11T03:02:23.149Z,918.00
2023-05-11T03:03:23.186Z,919.00
2023-05-11T03:04:23.118Z,920.00
2023-05-11T03:05:23.166Z,922.00
2023-05-11T03:06:23.215Z,921.00
2023-05-11T03:07:23.261Z,920.00
2023-05-11T03:08:23.315Z,919.00
2023-05-11T03:09:23.375Z,919.00
2023-05-11T03:10:23.421Z,920.00
2023-05-11T03:11:23.465Z,920.00
2023-05-11T03:12:23.510Z,918.00
2023-05-11T03:13:23.714Z,918.00
2023-05-11T03:14:23.616Z,920.00
2023-05-11T03:15:23.663Z,920.00
2023-05-11T03:16:23.742Z,919.00
2023-05-11T03:17:23.836Z,916.00
2023-05-11T03:18:23.848Z,918.00
2023-05-11T03:19:23.860Z,918.00
2023-05-11T03:20:23.913Z,920.00
2023-05-11T03:21:23.979Z,924.00
2023-05-11T03:22:24.012Z,926.00
2023-05-11T03:23:24.057Z,925.00
2023-05-11T03:24:24.121Z,920.00
2023-05-11T03:25:24.171Z,918.00
2023-05-11T03:26:24.214Z,917.00
2023-05-11T03:27:24.266Z,917.00
2023-05-11T03:28:24.336Z,915.00
2023-05-11T03:29:24.367Z,914.00
2023-05-11T03:30:24.426Z,914.00
2023-05-11T03:31:24.477Z,914.00
2023-05-11T03:32:24.705Z,914.00
2023-05-11T03:33:24.579Z,914.00
2023-05-11T03:34:24.648Z,911.00
2023-05-11T03:35:24.695Z,913.00
2023-05-11T03:36:24.726Z,912.00
2023-05-11T03:37:24.794Z,912.00
2023-05-11T03:38:24.914Z,910.00
2023-05-11T03:39:24.890Z,907.00
2023-05-11T03:40:24.922Z,910.00
2023-05-11T03:41:24.971Z,913.00
2023-05-11T03:42:25.020Z,912.00
2023-05-11T03:43:25.053Z,911.00
2023-05-11T03:44:25.112Z,912.00
2023-05-11T03:45:25.162Z,910.00
2023-05-11T03:46:25.390Z,909.00
2023-05-11T03:47:25.292Z,908.00
2023-05-11T03:48:25.327Z,907.00
2023-05-11T03:49:25.378Z,907.00
2023-05-11T03:50:25.429Z,905.00
2023-05-11T03:51:25.477Z,907.00
2023-05-11T03:52:25.535Z,907.00
2023-05-11T03:53:25.607Z,909.00
2023-05-11T03:54:25.640Z,909.00
2023-05-11T03:55:25.686Z,907.00
2023-05-11T03:56:25.737Z,905.00
2023-05-11T03:57:25.783Z,903.00
2023-05-11T03:58:25.836Z,903.00
2023-05-11T03:59:25.902Z,903.00
2023-05-11T04:00:25.952Z,904.00
2023-05-11T04:01:25.992Z,904.00
2023-05-11T04:02:26.107Z,906.00
2023-05-11T04:03:26.264Z,906.00
2023-05-11T04:04:26.180Z,905.00
2023-05-11T04:05:26.205Z,906.00
2023-05-11T04:06:26.253Z,906.00
2023-05-11T04:07:26.334Z,904.00
2023-05-11T04:08:26.368Z,903.00
2023-05-11T04:09:26.422Z,905.00
2023-05-11T04:10:26.473Z,901.00
2023-05-11T04:11:26.533Z,900.00
2023-05-11T04:12:26.590Z,902.00
2023-05-11T04:13:26.635Z,905.00
2023-05-11T04:14:26.678Z,905.00
2023-05-11T04:15:26.719Z,905.00
2023-05-11T04:16:26.793Z,904.00
2023-05-11T04:17:26.851Z,904.00
2023-05-11T04:18:26.904Z,906.00
2023-05-11T04:19:26.919Z,904.00
2023-05-11T04:20:26.963Z,903.00
2023-05-11T04:21:27.015Z,904.00
2023-05-11T04:22:27.069Z,903.00
2023-05-11T04:23:27.118Z,900.00
2023-05-11T04:24:27.179Z,898.00
2023-05-11T04:25:27.219Z,897.00
2023-05-11T04:26:27.299Z,895.00
2023-05-11T04:27:27.344Z,897.00
2023-05-11T04:28:27.383Z,900.00
2023-05-11T04:29:27.439Z,901.00
2023-05-11T04:30:27.501Z,901.00
2023-05-11T04:31:27.588Z,903.00
2023-05-11T04:32:27.630Z,900.00
2023-05-11T04:33:27.657Z,899.00
2023-05-11T04:34:27.706Z,899.00
2023-05-11T04:35:27.761Z,899.00
2023-05-11T04:36:27.815Z,899.00
2023-05-11T04:37:27.872Z,896.00
2023-05-11T04:38:27.923Z,891.00
2023-05-11T04:39:27.958Z,890.00
2023-05-11T04:40:28.013Z,889.00
2023-05-11T04:41:28.067Z,891.00
2023-05-11T04:42:28.188Z,893.00
2023-05-11T04:43:28.173Z,894.00
2023-05-11T04:44:28.228Z,889.00
2023-05-11T04:45:28.289Z,887.00
2023-05-11T04:46:28.354Z,889.00
2023-05-11T04:47:28.517Z,887.00
2023-05-11T04:48:28.474Z,887.00
2023-05-11T04:49:28.482Z,884.00
2023-05-11T04:50:28.511Z,884.00
2023-05-11T04:51:28.535Z,886.00
2023-05-11T04:52:28.598Z,885.00
2023-05-11T04:53:28.638Z,886.00
2023-05-11T04:54:28.675Z,887.00
2023-05-11T04:55:28.722Z,887.00
2023-05-11T04:56:28.795Z,888.00
2023-05-11T04:57:28.833Z,889.00
2023-05-11T04:58:28.878Z,887.00
2023-05-11T04:59:28.935Z,886.00
2023-05-11T05:00:28.961Z,887.00
2023-05-11T05:01:29.019Z,888.00
2023-05-11T05:02:29.099Z,889.00
2023-05-11T05:03:29.140Z,887.00
2023-05-11T05:04:29.144Z,886.00
2023-05-11T05:05:29.196Z,883.00
2023-05-11T05:06:29.239Z,884.00
2023-05-11T05:07:29.308Z,883.00
2023-05-11T05:08:29.332Z,883.00
2023-05-11T05:09:29.384Z,884.00
2023-05-11T05:10:29.447Z,888.00
2023-05-11T05:11:29.479Z,887.00
2023-05-11T05:12:29.540Z,891.00
2023-05-11T05:13:29.585Z,890.00
2023-05-11T05:14:29.634Z,889.00
2023-05-11T05:15:29.680Z,888.00
2023-05-11T05:16:32.121Z,889.00
2023-05-11T05:17:29.778Z,888.00
2023-05-11T05:18:29.976Z,886.00
2023-05-11T05:19:29.787Z,888.00
2023-05-11T05:20:29.794Z,887.00
2023-05-11T05:21:29.800Z,885.00
2023-05-11T05:22:29.814Z,887.00
2023-05-11T05:23:29.818Z,887.00
2023-05-11T05:24:29.837Z,887.00
2023-05-11T05:25:29.852Z,889.00
2023-05-11T05:26:29.861Z,886.00
2023-05-11T05:27:29.871Z,883.00
2023-05-11T05:28:29.889Z,883.00
2023-05-11T05:29:29.878Z,882.00
2023-05-11T05:30:30.447Z,883.00
2023-05-11T05:31:29.969Z,889.00
2023-05-11T05:32:29.953Z,899.00
2023-05-11T05:33:29.918Z,904.00
2023-05-11T05:34:29.914Z,906.00
2023-05-11T05:35:29.926Z,907.00
2023-05-11T05:36:29.944Z,913.00
2023-05-11T05:37:29.936Z,920.00
2023-05-11T05:38:29.952Z,924.00
2023-05-11T05:39:29.960Z,924.00
2023-05-11T05:40:30.007Z,924.00
2023-05-11T05:41:29.979Z,922.00
2023-05-11T05:42:30.049Z,921.00
2023-05-11T05:43:30.001Z,918.00
2023-05-11T05:44:30.029Z,918.00
2023-05-11T05:45:30.084Z,917.00
2023-05-11T05:46:30.061Z,918.00
2023-05-11T05:47:30.077Z,918.00
2023-05-11T05:48:30.057Z,922.00
2023-05-11T05:49:30.062Z,923.00
2023-05-11T05:50:30.075Z,926.00
2023-05-11T05:51:30.106Z,927.00
2023-05-11T05:52:30.098Z,926.00
2023-05-11T05:53:30.116Z,922.00
2023-05-11T05:54:30.129Z,925.00
2023-05-11T05:55:30.149Z,928.00
2023-05-11T05:56:30.149Z,930.00
2023-05-11T05:57:30.167Z,933.00
2023-05-11T05:58:30.176Z,938.00
2023-05-11T05:59:30.175Z,934.00
2023-05-11T06:00:30.213Z,936.00
2023-05-11T06:01:30.213Z,932.00
2023-05-11T06:02:30.260Z,930.00
2023-05-11T06:03:30.514Z,930.00
2023-05-11T06:04:30.266Z,926.00
2023-05-11T06:05:30.255Z,925.00
2023-05-11T06:06:30.258Z,920.00
2023-05-11T06:07:30.269Z,920.00
2023-05-11T06:08:30.280Z,921.00
2023-05-11T06:09:30.308Z,919.00
2023-05-11T06:10:30.298Z,916.00
2023-05-11T06:11:30.309Z,915.00
2023-05-11T06:12:30.319Z,916.00
2023-05-11T06:13:30.363Z,916.00
2023-05-11T06:14:30.419Z,915.00
2023-05-11T06:15:30.465Z,916.00
2023-05-11T06:16:30.538Z,918.00
2023-05-11T06:17:30.601Z,918.00
2023-05-11T06:18:30.648Z,918.00
2023-05-11T06:19:30.652Z,918.00
2023-05-11T06:20:30.695Z,916.00
2023-05-11T06:21:30.731Z,913.00
2023-05-11T06:22:30.803Z,914.00
2023-05-11T06:23:30.837Z,917.00
2023-05-11T06:24:30.883Z,920.00
2023-05-11T06:25:30.927Z,953.00
2023-05-11T06:26:30.964Z,1038.00
2023-05-11T06:27:31.016Z,1102.00
2023-05-11T06:28:31.059Z,1110.00
2023-05-11T06:29:31.103Z,1112.00
2023-05-11T06:30:31.164Z,835.00
2023-05-11T06:31:31.236Z,805.00
2023-05-11T06:32:31.325Z,713.00
2023-05-11T06:33:31.362Z,685.00
2023-05-11T06:34:31.441Z,702.00
2023-05-11T06:35:31.472Z,828.00
2023-05-11T06:36:31.501Z,864.00
2023-05-11T06:37:31.531Z,878.00
2023-05-11T06:38:31.612Z,894.00
2023-05-11T06:39:31.699Z,961.00
2023-05-11T06:40:31.772Z,986.00
2023-05-11T06:41:31.835Z,994.00
2023-05-11T06:42:31.911Z,1008.00
2023-05-11T06:43:31.963Z,1037.00
2023-05-11T06:44:32.014Z,1085.00
2023-05-11T06:45:32.215Z,1102.00
2023-05-11T06:46:32.191Z,1116.00
2023-05-11T06:47:32.187Z,1132.00
2023-05-11T06:48:32.215Z,1146.00
2023-05-11T06:49:32.279Z,1167.00
2023-05-11T06:50:32.309Z,1198.00
2023-05-11T06:51:32.359Z,1220.00
2023-05-11T06:52:32.393Z,1253.00
2023-05-11T06:53:32.438Z,1279.00
2023-05-11T06:54:32.468Z,1296.00
2023-05-11T06:55:32.509Z,1316.00
2023-05-11T06:56:32.547Z,1339.00
2023-05-11T06:57:32.586Z,1356.00
2023-05-11T06:58:32.616Z,1374.00
2023-05-11T06:59:32.650Z,1389.00
2023-05-11T07:00:32.696Z,1404.00
2023-05-11T07:01:32.801Z,1425.00
2023-05-11T07:02:32.793Z,1451.00
2023-05-11T07:03:32.788Z,1486.00
2023-05-11T07:04:32.862Z,1499.00
2023-05-11T07:05:32.860Z,1516.00
2023-05-11T07:06:32.877Z,1520.00
2023-05-11T07:07:32.910Z,1532.00
2023-05-11T07:08:32.935Z,1541.00
2023-05-11T07:09:32.958Z,1561.00
2023-05-11T07:10:33.006Z,1588.00
2023-05-11T07:11:33.004Z,1613.00
2023-05-11T07:12:33.029Z,1664.00
2023-05-11T07:13:33.060Z,1680.00
2023-05-11T07:14:33.080Z,1687.00
2023-05-11T07:15:33.118Z,1702.00
2023-05-11T07:16:33.208Z,1722.00
2023-05-11T07:17:33.168Z,1737.00
2023-05-11T07:18:33.222Z,1782.00
2023-05-11T07:19:33.192Z,1812.00
2023-05-11T07:20:33.243Z,1682.00
2023-05-11T07:21:33.262Z,1664.00
2023-05-11T07:22:33.330Z,1246.00
2023-05-11T07:23:33.368Z,969.00
2023-05-11T07:24:35.007Z,953.00
2023-05-11T07:25:33.424Z,922.00
2023-05-11T07:26:33.458Z,912.00
2023-05-11T07:27:33.484Z,897.00
2023-05-11T07:28:33.526Z,859.00
2023-05-11T07:29:33.573Z,849.00
2023-05-11T07:30:33.639Z,832.00
2023-05-11T07:31:33.722Z,821.00
2023-05-11T07:32:33.787Z,826.00
2023-05-11T07:33:33.779Z,842.00
2023-05-11T07:34:33.794Z,893.00
2023-05-11T07:35:33.826Z,919.00
2023-05-11T07:36:33.860Z,947.00
2023-05-11T07:37:34.492Z,976.00
2023-05-11T07:38:34.025Z,1015.00
2023-05-11T07:39:34.093Z,1041.00
2023-05-11T07:40:34.161Z,1072.00
2023-05-11T07:41:34.220Z,1095.00
2023-05-11T07:42:34.289Z,1120.00
2023-05-11T07:43:34.334Z,1150.00
2023-05-11T07:44:34.390Z,1182.00
2023-05-11T07:45:35.913Z,1210.00
2023-05-11T07:46:35.433Z,1242.00
2023-05-11T07:47:36.928Z,1262.00
2023-05-11T07:48:34.676Z,1273.00
2023-05-11T07:49:42.813Z,1280.00
2023-05-11T07:50:35.739Z,1309.00
2023-05-11T07:51:34.713Z,1343.00
2023-05-11T07:52:34.719Z,1368.00
2023-05-11T07:53:34.726Z,1398.00
2023-05-11T07:54:34.726Z,1431.00
2023-05-11T07:55:34.742Z,1442.00
2023-05-11T07:56:34.750Z,1453.00
2023-05-11T07:57:34.731Z,1478.00
2023-05-11T07:58:34.740Z,1502.00
2023-05-11T07:59:34.754Z,1512.00
2023-05-11T08:00:34.737Z,1524.00
2023-05-11T08:01:34.749Z,1533.00
2023-05-11T08:02:34.889Z,1574.00
2023-05-11T08:03:34.745Z,1610.00
2023-05-11T08:04:34.717Z,1620.00
2023-05-11T08:05:34.739Z,1635.00
2023-05-11T08:06:34.716Z,1649.00
2023-05-11T08:07:34.700Z,1665.00
2023-05-11T08:08:34.693Z,1689.00
2023-05-11T08:09:34.684Z,1715.00
2023-05-11T08:10:34.666Z,1771.00
2023-05-11T08:11:34.658Z,1784.00
2023-05-11T08:12:34.647Z,1776.00
2023-05-11T08:13:34.655Z,1650.00
2023-05-11T08:14:34.636Z,1705.00
2023-05-11T08:15:34.640Z,1624.00
2023-05-11T08:16:34.710Z,1303.00
2023-05-11T08:17:34.746Z,1269.00
2023-05-11T08:18:34.764Z,1135.00
2023-05-11T08:19:34.802Z,1116.00
2023-05-11T08:20:34.890Z,1141.00
2023-05-11T08:21:34.970Z,1087.00
2023-05-11T08:22:35.037Z,979.00
2023-05-11T08:23:35.064Z,952.00
2023-05-11T08:24:35.089Z,942.00
2023-05-11T08:25:35.094Z,916.00
2023-05-11T08:26:35.147Z,908.00
2023-05-11T08:27:35.116Z,934.00
2023-05-11T08:28:35.151Z,919.00
2023-05-11T08:29:35.199Z,1014.00
2023-05-11T08:30:35.292Z,1021.00
2023-05-11T08:31:35.355Z,1048.00
2023-05-11T08:32:50.070Z,1049.00
2023-05-11T08:33:38.637Z,1053.00
2023-05-11T08:34:35.493Z,1059.00
2023-05-11T08:35:35.418Z,1066.00
2023-05-11T08:36:35.409Z,1077.00
2023-05-11T08:37:35.400Z,1104.00
2023-05-11T08:38:35.448Z,1122.00
2023-05-11T08:39:46.598Z,1138.00
2023-05-11T08:40:36.409Z,1138.00
2023-05-11T08:41:35.410Z,1155.00
2023-05-11T08:42:35.457Z,1156.00
2023-05-11T08:43:35.407Z,1161.00
2023-05-11T08:44:35.402Z,1159.00
2023-05-11T08:45:35.460Z,1173.00
2023-05-11T08:46:35.392Z,1160.00
2023-05-11T08:47:35.408Z,1150.00
2023-05-11T08:48:35.392Z,1167.00
2023-05-11T08:49:35.393Z,1169.00
2023-05-11T08:50:35.389Z,1174.00
2023-05-11T08:51:35.406Z,1183.00
2023-05-11T08:52:35.394Z,1130.00
2023-05-11T08:53:35.410Z,1136.00
2023-05-11T08:54:35.455Z,1161.00
2023-05-11T08:55:35.504Z,1175.00
2023-05-11T08:56:35.552Z,1179.00
2023-05-11T08:57:35.585Z,1186.00
2023-05-11T08:58:35.643Z,1171.00
2023-05-11T08:59:35.687Z,1127.00
2023-05-11T09:00:35.732Z,1147.00
2023-05-11T09:01:35.863Z,1117.00
2023-05-11T09:02:35.952Z,1114.00
2023-05-11T09:03:35.868Z,1126.00
2023-05-11T09:04:35.934Z,1143.00
2023-05-11T09:05:36.020Z,1148.00
2023-05-11T09:06:36.018Z,1168.00
2023-05-11T09:07:36.068Z,1156.00
2023-05-11T09:08:36.104Z,1157.00
2023-05-11T09:09:36.140Z,1149.00
2023-05-11T09:10:36.194Z,1150.00
2023-05-11T09:11:36.226Z,1141.00
2023-05-11T09:12:36.270Z,1131.00
2023-05-11T09:13:36.315Z,1146.00
2023-05-11T09:14:36.347Z,1143.00
2023-05-11T09:15:38.357Z,1036.00
2023-05-11T09:16:37.570Z,1080.00
2023-05-11T09:17:36.537Z,1095.00
2023-05-11T09:18:36.536Z,1000.00
2023-05-11T09:19:36.566Z,1015.00
2023-05-11T09:20:36.624Z,1011.00
2023-05-11T09:21:36.664Z,1008.00
2023-05-11T09:22:36.847Z,1003.00
2023-05-11T09:23:36.754Z,1005.00
2023-05-11T09:24:36.794Z,998.00
2023-05-11T09:25:36.827Z,1002.00
2023-05-11T09:26:36.893Z,1018.00
2023-05-11T09:27:36.988Z,1030.00
2023-05-11T09:28:37.260Z,1032.00
2023-05-11T09:29:37.020Z,974.00
2023-05-11T09:30:37.080Z,929.00
2023-05-11T09:31:37.196Z,886.00
2023-05-11T09:32:37.316Z,878.00
2023-05-11T09:33:37.299Z,881.00
2023-05-11T09:35:38.382Z,921.00
2023-05-11T09:36:37.389Z,944.00
2023-05-11T09:37:37.396Z,939.00
2023-05-11T09:38:37.465Z,941.00
2023-05-11T09:39:42.207Z,953.00
2023-05-11T09:40:39.013Z,964.00
2023-05-11T09:41:37.403Z,977.00
2023-05-11T09:42:37.405Z,989.00
2023-05-11T09:43:37.412Z,998.00
2023-05-11T09:44:37.431Z,1002.00
2023-05-11T09:45:37.447Z,1012.00
2023-05-11T09:46:37.528Z,1021.00
2023-05-11T09:47:37.466Z,1034.00
2023-05-11T09:48:37.456Z,1041.00
2023-05-11T09:49:37.464Z,1048.00
2023-05-11T09:50:37.490Z,1048.00
2023-05-11T09:51:37.490Z,1081.00
2023-05-11T09:52:37.494Z,1100.00
2023-05-11T09:53:37.524Z,1111.00
2023-05-11T09:54:37.567Z,1124.00
2023-05-11T09:55:37.601Z,1127.00
2023-05-11T09:56:37.657Z,1140.00
2023-05-11T09:57:37.698Z,1163.00
2023-05-11T09:58:37.759Z,1172.00
2023-05-11T09:59:37.807Z,1178.00
2023-05-11T10:00:37.937Z,1184.00
2023-05-11T10:01:37.904Z,1192.00
2023-05-11T10:02:38.075Z,1198.00
2023-05-11T10:03:38.032Z,1204.00
2023-05-11T10:04:38.010Z,1207.00
2023-05-11T10:05:38.024Z,1213.00
2023-05-11T10:06:38.077Z,1215.00
2023-05-11T10:07:38.128Z,1217.00
2023-05-11T10:08:38.152Z,1222.00
2023-05-11T10:09:38.198Z,1227.00
2023-05-11T10:10:38.251Z,1226.00
2023-05-11T10:11:38.305Z,1223.00
2023-05-11T10:12:38.514Z,1223.00
2023-05-11T10:13:38.378Z,1218.00
2023-05-11T10:14:38.427Z,1222.00
2023-05-11T10:15:38.441Z,1225.00
2023-05-11T10:16:38.520Z,1252.00
2023-05-11T10:17:38.635Z,1338.00
2023-05-11T10:18:38.593Z,1360.00
2023-05-11T10:19:38.616Z,1381.00
2023-05-11T10:20:38.646Z,1410.00
2023-05-11T10:21:38.760Z,1435.00
2023-05-11T10:22:38.797Z,1467.00
2023-05-11T10:23:38.778Z,1496.00
2023-05-11T10:24:38.806Z,1517.00
2023-05-11T10:25:38.848Z,1536.00
2023-05-11T10:26:38.874Z,1558.00
2023-05-11T10:27:38.883Z,1589.00
2023-05-11T10:28:38.913Z,1619.00
2023-05-11T10:29:38.945Z,1643.00
2023-05-11T10:30:38.956Z,1660.00
2023-05-11T10:31:39.001Z,1679.00
2023-05-11T10:32:39.032Z,1696.00
2023-05-11T10:33:39.015Z,1711.00
2023-05-11T10:34:39.016Z,1736.00
2023-05-11T10:35:39.054Z,1764.00
2023-05-11T10:36:39.051Z,1790.00
2023-05-11T10:37:39.066Z,1811.00
2023-05-11T10:38:39.072Z,1832.00
2023-05-11T10:39:39.079Z,1852.00
2023-05-11T10:40:39.097Z,1875.00
2023-05-11T10:41:39.496Z,1894.00
2023-05-11T10:42:39.102Z,1923.00
2023-05-11T10:43:40.050Z,1947.00
2023-05-11T10:44:39.112Z,1968.00
2023-05-11T10:45:39.121Z,1999.00
2023-05-11T10:46:39.143Z,2039.00
2023-05-11T10:47:39.170Z,2043.00
2023-05-11T10:48:39.134Z,2063.00
2023-05-11T10:49:39.203Z,2085.00
2023-05-11T10:50:41.471Z,2106.00
2023-05-11T10:51:39.146Z,2126.00
2023-05-11T10:52:39.173Z,2146.00
2023-05-11T10:53:39.147Z,2169.00
2023-05-11T10:54:39.127Z,2192.00
2023-05-11T10:55:39.134Z,2212.00
2023-05-11T10:56:39.140Z,2235.00
2023-05-11T10:57:39.132Z,2281.00
2023-05-11T10:58:39.130Z,2297.00
2023-05-11T10:59:39.174Z,2317.00
2023-05-11T11:00:39.139Z,2339.00
2023-05-11T11:01:39.115Z,2321.00
2023-05-11T11:02:39.161Z,2343.00
2023-05-11T11:03:39.090Z,2391.00
2023-05-11T11:04:39.086Z,2404.00
2023-05-11T11:05:39.159Z,2407.00
2023-05-11T11:06:39.061Z,2418.00
2023-05-11T11:07:39.062Z,2424.00
2023-05-11T11:08:39.024Z,2423.00
2023-05-11T11:09:39.011Z,2419.00
2023-05-11T11:10:39.041Z,2419.00
2023-05-11T11:11:39.036Z,2416.00
2023-05-11T11:12:38.985Z,2420.00
2023-05-11T11:13:38.993Z,2424.00
2023-05-11T11:14:38.966Z,2423.00
2023-05-11T11:15:38.981Z,2420.00
2023-05-11T11:16:39.073Z,2420.00
2023-05-11T11:17:38.985Z,2426.00
2023-05-11T11:18:39.056Z,2422.00
2023-05-11T11:19:38.962Z,2419.00
2023-05-11T11:20:38.954Z,2413.00
2023-05-11T11:21:38.964Z,2411.00
2023-05-11T11:22:39.134Z,2408.00
2023-05-11T11:23:38.953Z,2404.00
2023-05-11T11:24:38.924Z,2404.00
2023-05-11T11:25:38.935Z,2408.00
2023-05-11T11:26:38.918Z,2409.00
2023-05-11T11:27:38.913Z,2411.00
2023-05-11T11:28:38.908Z,2407.00
2023-05-11T11:29:38.908Z,2404.00
2023-05-11T11:30:38.931Z,2404.00
2023-05-11T11:31:39.592Z,2402.00
2023-05-11T11:32:38.917Z,2405.00
2023-05-11T11:33:38.898Z,2408.00
2023-05-11T11:34:38.902Z,2410.00
2023-05-11T11:35:38.895Z,2405.00
2023-05-11T11:36:38.890Z,2403.00
2023-05-11T11:37:38.875Z,2404.00
2023-05-11T11:38:39.495Z,2401.00
2023-05-11T11:39:38.875Z,2393.00
2023-05-11T11:40:47.192Z,2388.00
2023-05-11T11:41:39.874Z,2391.00
2023-05-11T11:42:38.860Z,2391.00
2023-05-11T11:43:38.863Z,2390.00
2023-05-11T11:44:38.871Z,2388.00
2023-05-11T11:45:38.861Z,2377.00
2023-05-11T11:46:38.883Z,2369.00
2023-05-11T11:47:38.900Z,2367.00
2023-05-11T11:48:38.862Z,2370.00
2023-05-11T11:49:38.876Z,2366.00
2023-05-11T11:50:38.852Z,2363.00
2023-05-11T11:51:38.858Z,2359.00
2023-05-11T11:52:38.856Z,2239.00
2023-05-11T11:53:38.850Z,2252.00
2023-05-11T11:54:39.871Z,2187.00
2023-05-11T11:55:38.853Z,1934.00
2023-05-11T11:56:38.894Z,1882.00
2023-05-11T11:57:38.879Z,1884.00
2023-05-11T11:58:38.869Z,1706.00
2023-05-11T11:59:38.882Z,1917.00
2023-05-11T12:00:38.876Z,1920.00
2023-05-11T12:01:38.890Z,1708.00
2023-05-11T12:02:38.941Z,1896.00
2023-05-11T12:03:39.003Z,1662.00
2023-05-11T12:04:38.986Z,1621.00
2023-05-11T12:05:38.893Z,1514.00
2023-05-11T12:06:38.893Z,1650.00
2023-05-11T12:07:38.911Z,1781.00
2023-05-11T12:08:38.905Z,1796.00
2023-05-11T12:09:38.969Z,1769.00
2023-05-11T12:10:38.909Z,1797.00
2023-05-11T12:11:38.914Z,1820.00
2023-05-11T12:12:38.917Z,1887.00
2023-05-11T12:13:38.929Z,1917.00
2023-05-11T12:14:38.926Z,1929.00
2023-05-11T12:15:38.932Z,1926.00
2023-05-11T12:16:38.969Z,1932.00
2023-05-11T12:17:39.021Z,1934.00
2023-05-11T12:18:38.972Z,1941.00
2023-05-11T12:19:38.956Z,1945.00